Time;durP1;ratioP1;P1;durP2;ratioP2;P2;SDS_P1;SDS_P2;PMS_P1;PMS_P2;Temp;Humidity;BMP_temperature;BMP_pressure;BME280_temperature;BME280_humidity;BME280_pressure;Samples;Min_cycle;Max_cycle;Signal;HPM_P1;HPM_P2
2024/01/03 00:01:25;;;;;;;4.43;1.15;;;;;;;;;;4988000;28;20045;-77
2024/01/03 00:03:53;;;;;;;4.05;1.20;;;;;;;;;;4975227;28;20038;-77
2024/01/03 00:06:19;;;;;;;7.20;1.88;;;;;;;;;;4974120;28;20153;-77
2024/01/03 00:08:45;;;;;;;4.13;1.30;;;;;;;;;;4973922;28;20042;-76
2024/01/03 00:11:14;;;;;;;6.85;1.77;;;;;;;;;;4971413;28;20489;-77
2024/01/03 00:13:49;;;;;;;11.15;1.70;;;;;;;;;;4971750;28;20125;-78
2024/01/03 00:16:20;;;;;;;9.20;1.88;;;;;;;;;;4986625;28;20487;-77
2024/01/03 00:18:51;;;;;;;10.30;1.90;;;;;;;;;;4981851;28;20112;-76
2024/01/03 00:21:25;;;;;;;8.73;1.80;;;;;;;;;;4974032;28;20124;-74
2024/01/03 00:23:52;;;;;;;8.40;1.70;;;;;;;;;;4989588;28;20049;-76
2024/01/03 00:26:19;;;;;;;7.93;1.83;;;;;;;;;;4987204;28;20048;-76
2024/01/03 00:28:45;;;;;;;7.70;1.52;;;;;;;;;;4988111;28;20480;-76
2024/01/03 00:31:30;;;;;;;16.20;2.17;;;;;;;;;;4974557;28;20056;-77
2024/01/03 00:33:56;;;;;;;9.40;1.73;;;;;;;;;;4977563;28;20056;-75
2024/01/03 00:36:23;;;;;;;10.07;2.10;;;;;;;;;;4988381;28;20121;-78
2024/01/03 00:38:49;;;;;;;5.78;1.83;;;;;;;;;;4962726;28;20038;-77
2024/01/03 00:41:15;;;;;;;4.47;1.17;;;;;;;;;;4993025;28;20579;-77
2024/01/03 00:43:41;;;;;;;9.23;1.50;;;;;;;;;;4958915;28;20042;-77
2024/01/03 00:46:10;;;;;;;10.07;1.70;;;;;;;;;;4974161;28;20042;-77
2024/01/03 00:48:37;;;;;;;14.82;1.63;;;;;;;;;;4976411;28;20045;-77
2024/01/03 00:51:04;;;;;;;9.23;2.10;;;;;;;;;;4959831;28;20052;-77
2024/01/03 00:53:30;;;;;;;8.77;1.20;;;;;;;;;;4975947;28;20149;-77
2024/01/03 00:55:57;;;;;;;4.40;1.13;;;;;;;;;;4975171;28;20053;-77
2024/01/03 00:58:23;;;;;;;7.95;1.52;;;;;;;;;;4977879;28;20041;-77
2024/01/03 01:00:50;;;;;;;8.05;2.03;;;;;;;;;;4977690;28;20057;-77
2024/01/03 01:03:17;;;;;;;6.05;1.75;;;;;;;;;;4973509;28;20080;-77
2024/01/03 01:05:43;;;;;;;13.23;2.63;;;;;;;;;;4992794;28;20055;-76
2024/01/03 01:08:09;;;;;;;11.43;1.40;;;;;;;;;;4978946;28;20061;-76
2024/01/03 01:10:35;;;;;;;10.05;1.75;;;;;;;;;;4977157;28;20045;-77
2024/01/03 01:13:01;;;;;;;6.15;2.00;;;;;;;;;;4992375;28;20032;-77
2024/01/03 01:15:27;;;;;;;11.90;2.05;;;;;;;;;;4975447;28;20088;-77
2024/01/03 01:17:53;;;;;;;8.93;1.85;;;;;;;;;;4957489;28;20474;-78
2024/01/03 01:20:20;;;;;;;9.20;2.10;;;;;;;;;;4975862;28;20046;-78
2024/01/03 01:22:46;;;;;;;8.80;1.88;;;;;;;;;;4991139;28;20139;-77
2024/01/03 01:25:12;;;;;;;6.68;2.03;;;;;;;;;;4993964;28;20132;-77
2024/01/03 01:27:38;;;;;;;12.93;1.77;;;;;;;;;;4973631;28;20073;-77
2024/01/03 01:30:04;;;;;;;17.80;2.25;;;;;;;;;;4976038;28;20113;-77
2024/01/03 01:32:30;;;;;;;7.93;1.80;;;;;;;;;;4972803;28;20049;-77
2024/01/03 01:34:56;;;;;;;15.23;2.25;;;;;;;;;;4977144;28;20112;-77
2024/01/03 01:37:22;;;;;;;12.57;2.58;;;;;;;;;;4972558;28;20034;-77
2024/01/03 01:39:48;;;;;;;6.13;1.52;;;;;;;;;;4972748;28;20049;-77
2024/01/03 01:42:14;;;;;;;15.60;2.30;;;;;;;;;;4976536;28;20042;-77
2024/01/03 01:44:40;;;;;;;10.32;2.05;;;;;;;;;;4961538;28;20129;-77
2024/01/03 01:47:09;;;;;;;9.98;2.35;;;;;;;;;;4975098;28;20033;-76
2024/01/03 01:49:39;;;;;;;11.52;2.35;;;;;;;;;;4989599;28;20057;-77
2024/01/03 01:52:05;;;;;;;13.57;3.15;;;;;;;;;;4994615;28;20045;-77
2024/01/03 01:54:32;;;;;;;17.92;3.15;;;;;;;;;;4972792;28;20092;-76
2024/01/03 01:56:58;;;;;;;13.50;2.22;;;;;;;;;;4990476;28;20060;-76
2024/01/03 01:59:24;;;;;;;11.63;2.60;;;;;;;;;;4969685;28;20085;-77
2024/01/03 02:01:51;;;;;;;10.68;2.38;;;;;;;;;;4976531;28;20105;-76
2024/01/03 02:04:17;;;;;;;12.38;2.60;;;;;;;;;;4989678;28;20030;-76
2024/01/03 02:06:43;;;;;;;10.60;2.08;;;;;;;;;;4958447;28;20448;-76
2024/01/03 02:09:10;;;;;;;12.25;2.42;;;;;;;;;;4990581;28;20037;-77
2024/01/03 02:11:43;;;;;;;13.50;2.75;;;;;;;;;;4971384;28;20176;-77
2024/01/03 02:14:09;;;;;;;23.48;2.08;;;;;;;;;;4974555;28;20060;-76
2024/01/03 02:16:35;;;;;;;13.35;2.20;;;;;;;;;;4973359;28;20037;-77
2024/01/03 02:19:04;;;;;;;19.05;3.50;;;;;;;;;;4990842;28;20049;-77
2024/01/03 02:21:30;;;;;;;23.20;3.40;;;;;;;;;;4961165;28;20045;-77
2024/01/03 02:23:56;;;;;;;16.88;3.13;;;;;;;;;;4973045;28;20046;-76
2024/01/03 02:26:22;;;;;;;24.73;2.97;;;;;;;;;;4991293;28;20033;-76
2024/01/03 02:28:48;;;;;;;20.38;3.05;;;;;;;;;;4985159;28;20042;-77
2024/01/03 02:31:14;;;;;;;19.15;2.88;;;;;;;;;;4988191;28;20481;-76
2024/01/03 02:33:40;;;;;;;13.85;2.25;;;;;;;;;;4973134;28;20113;-77
2024/01/03 02:36:07;;;;;;;14.55;2.42;;;;;;;;;;4989093;28;20042;-76
2024/01/03 02:38:33;;;;;;;28.95;3.03;;;;;;;;;;4976502;28;20081;-76
2024/01/03 02:40:59;;;;;;;21.95;4.30;;;;;;;;;;4956004;28;20563;-77
2024/01/03 02:43:25;;;;;;;17.77;2.38;;;;;;;;;;4988603;28;20037;-76
2024/01/03 02:45:52;;;;;;;11.05;2.38;;;;;;;;;;4987224;28;20548;-76
2024/01/03 02:48:18;;;;;;;22.00;2.70;;;;;;;;;;4955733;28;20068;-76
2024/01/03 02:50:48;;;;;;;16.27;3.08;;;;;;;;;;4973779;28;20406;-76
2024/01/03 02:53:15;;;;;;;17.08;2.80;;;;;;;;;;4977204;28;20048;-76
2024/01/03 02:55:41;;;;;;;17.52;2.83;;;;;;;;;;4987661;28;20050;-77
2024/01/03 02:58:07;;;;;;;8.60;1.67;;;;;;;;;;4976420;28;20405;-79
2024/01/03 03:00:36;;;;;;;19.52;2.38;;;;;;;;;;5000385;28;20046;-77
2024/01/03 03:03:02;;;;;;;18.55;2.75;;;;;;;;;;4956455;28;20059;-78
2024/01/03 03:05:28;;;;;;;8.55;1.95;;;;;;;;;;4972758;28;20152;-77
2024/01/03 03:07:54;;;;;;;25.83;3.67;;;;;;;;;;4970692;28;20544;-78
2024/01/03 03:10:20;;;;;;;16.35;3.65;;;;;;;;;;4986114;28;20042;-77
2024/01/03 03:12:46;;;;;;;12.80;2.10;;;;;;;;;;4959172;28;20029;-77
2024/01/03 03:15:12;;;;;;;15.85;2.42;;;;;;;;;;4972743;28;20060;-77
2024/01/03 03:17:38;;;;;;;15.13;2.83;;;;;;;;;;4972942;28;20038;-77
2024/01/03 03:20:05;;;;;;;16.58;2.47;;;;;;;;;;4976352;28;20147;-77
2024/01/03 03:22:31;;;;;;;7.20;1.60;;;;;;;;;;4957290;28;20080;-78
2024/01/03 03:24:57;;;;;;;23.33;2.70;;;;;;;;;;4977138;28;20135;-77
2024/01/03 03:27:24;;;;;;;17.27;2.35;;;;;;;;;;4986791;28;20084;-78
2024/01/03 03:29:50;;;;;;;16.52;2.70;;;;;;;;;;4955335;28;20501;-77
2024/01/03 03:32:16;;;;;;;7.80;1.88;;;;;;;;;;4990847;28;20512;-77
2024/01/03 03:34:42;;;;;;;15.77;2.33;;;;;;;;;;4973944;28;20034;-77
2024/01/03 03:37:09;;;;;;;24.55;2.33;;;;;;;;;;4960162;28;20046;-78
2024/01/03 03:39:35;;;;;;;24.10;3.25;;;;;;;;;;4971443;28;20152;-77
2024/01/03 03:42:01;;;;;;;18.65;2.20;;;;;;;;;;4987154;28;20042;-77
2024/01/03 03:44:27;;;;;;;18.70;2.70;;;;;;;;;;4972104;28;20493;-77
2024/01/03 03:46:53;;;;;;;18.13;2.10;;;;;;;;;;4969554;28;20049;-78
2024/01/03 03:49:19;;;;;;;16.63;2.58;;;;;;;;;;4989951;28;20268;-78
2024/01/03 03:51:45;;;;;;;13.07;1.75;;;;;;;;;;4991325;28;20042;-77
2024/01/03 03:54:11;;;;;;;15.98;2.70;;;;;;;;;;4986033;28;20080;-77
2024/01/03 03:56:37;;;;;;;16.70;2.72;;;;;;;;;;4991851;28;20050;-77
2024/01/03 03:59:04;;;;;;;12.85;2.33;;;;;;;;;;4991991;28;20038;-76
2024/01/03 04:01:30;;;;;;;12.85;1.65;;;;;;;;;;4988412;28;20053;-76
2024/01/03 04:03:56;;;;;;;13.55;2.55;;;;;;;;;;4960465;28;20041;-77
2024/01/03 04:06:22;;;;;;;13.60;2.40;;;;;;;;;;4972349;28;20045;-77
2024/01/03 04:08:49;;;;;;;11.52;1.67;;;;;;;;;;4979500;28;20492;-77
2024/01/03 04:11:15;;;;;;;12.02;2.00;;;;;;;;;;4994124;28;20204;-76
2024/01/03 04:13:41;;;;;;;10.00;1.88;;;;;;;;;;4994666;28;20500;-76
2024/01/03 04:16:08;;;;;;;16.65;2.63;;;;;;;;;;4978988;28;20076;-76
2024/01/03 04:18:34;;;;;;;16.77;2.00;;;;;;;;;;4977000;28;20134;-77
2024/01/03 04:21:05;;;;;;;16.38;2.10;;;;;;;;;;4974923;28;20132;-76
2024/01/03 04:23:31;;;;;;;12.45;1.83;;;;;;;;;;4993505;28;20100;-76
2024/01/03 04:25:57;;;;;;;11.80;2.35;;;;;;;;;;4987793;28;20069;-76
2024/01/03 04:28:23;;;;;;;9.63;2.13;;;;;;;;;;4962553;28;20049;-76
2024/01/03 04:30:49;;;;;;;14.45;2.95;;;;;;;;;;4977762;28;20050;-76
2024/01/03 04:33:15;;;;;;;16.98;2.45;;;;;;;;;;4975136;28;20066;-75
2024/01/03 04:35:41;;;;;;;19.80;2.20;;;;;;;;;;4959030;28;20034;-76
2024/01/03 04:38:10;;;;;;;9.50;1.90;;;;;;;;;;4992917;28;20069;-76
2024/01/03 04:40:37;;;;;;;13.77;1.80;;;;;;;;;;4975721;28;20037;-76
2024/01/03 04:43:03;;;;;;;8.70;2.10;;;;;;;;;;4987522;28;20049;-76
2024/01/03 04:45:29;;;;;;;13.48;2.30;;;;;;;;;;4992122;28;20053;-76
2024/01/03 04:47:55;;;;;;;13.80;1.70;;;;;;;;;;4958929;28;20038;-77
2024/01/03 04:50:21;;;;;;;9.57;1.77;;;;;;;;;;4994496;28;20040;-76
2024/01/03 04:52:47;;;;;;;6.93;1.45;;;;;;;;;;4978082;28;20519;-76
2024/01/03 04:55:14;;;;;;;6.63;1.48;;;;;;;;;;4977920;28;20034;-77
2024/01/03 04:57:43;;;;;;;7.15;1.10;;;;;;;;;;4974978;28;20571;-77
2024/01/03 05:00:09;;;;;;;10.60;1.80;;;;;;;;;;4992124;28;20085;-76
2024/01/03 05:02:36;;;;;;;3.83;1.70;;;;;;;;;;4971253;28;20046;-76
2024/01/03 05:05:02;;;;;;;16.55;3.08;;;;;;;;;;4960901;28;20046;-77
2024/01/03 05:07:31;;;;;;;11.02;1.80;;;;;;;;;;4975255;28;20104;-77
2024/01/03 05:09:57;;;;;;;8.95;2.42;;;;;;;;;;4977125;28;20034;-77
2024/01/03 05:12:24;;;;;;;12.25;3.05;;;;;;;;;;4974252;28;20402;-77
2024/01/03 05:14:50;;;;;;;6.70;1.73;;;;;;;;;;4974890;28;20037;-77
2024/01/03 05:17:16;;;;;;;12.00;2.47;;;;;;;;;;4969554;28;20038;-77
2024/01/03 05:19:43;;;;;;;9.50;2.42;;;;;;;;;;4975339;28;20041;-78
2024/01/03 05:22:09;;;;;;;12.02;2.22;;;;;;;;;;4991363;28;20216;-77
2024/01/03 05:24:35;;;;;;;12.07;2.22;;;;;;;;;;4991794;28;20077;-77
2024/01/03 05:27:02;;;;;;;9.50;2.15;;;;;;;;;;4976753;28;20038;-78
2024/01/03 05:29:28;;;;;;;9.00;1.65;;;;;;;;;;4978127;28;20052;-77
2024/01/03 05:31:54;;;;;;;9.73;1.60;;;;;;;;;;4989724;28;20081;-77
2024/01/03 05:34:20;;;;;;;12.73;2.35;;;;;;;;;;4985479;28;20049;-78
2024/01/03 05:36:46;;;;;;;7.20;2.10;;;;;;;;;;4972533;28;20620;-78
2024/01/03 05:39:13;;;;;;;9.23;2.05;;;;;;;;;;4986380;28;20492;-78
2024/01/03 05:41:39;;;;;;;10.02;1.67;;;;;;;;;;4974692;28;20504;-77
2024/01/03 05:44:05;;;;;;;9.93;2.28;;;;;;;;;;4987540;28;20038;-77
2024/01/03 05:46:31;;;;;;;11.40;2.28;;;;;;;;;;4988177;28;20037;-77
2024/01/03 05:48:58;;;;;;;10.95;1.60;;;;;;;;;;4959605;28;20041;-78
2024/01/03 05:51:25;;;;;;;9.98;2.03;;;;;;;;;;4968634;28;20172;-78
2024/01/03 05:53:51;;;;;;;15.55;1.77;;;;;;;;;;4970743;28;20537;-77
2024/01/03 05:56:19;;;;;;;13.60;2.38;;;;;;;;;;4985794;28;20054;-77
2024/01/03 05:58:45;;;;;;;14.07;2.75;;;;;;;;;;4973299;28;20092;-77
2024/01/03 06:01:12;;;;;;;11.63;1.92;;;;;;;;;;4991355;28;20074;-78
2024/01/03 06:03:38;;;;;;;18.30;2.90;;;;;;;;;;4990302;28;20396;-78
2024/01/03 06:06:04;;;;;;;10.40;2.83;;;;;;;;;;4972383;28;20065;-77
2024/01/03 06:08:30;;;;;;;9.55;1.75;;;;;;;;;;4970963;28;20038;-78
2024/01/03 06:10:56;;;;;;;10.88;2.55;;;;;;;;;;4987865;28;20509;-77
2024/01/03 06:13:22;;;;;;;10.88;1.88;;;;;;;;;;4989649;28;20060;-77
2024/01/03 06:15:48;;;;;;;10.07;2.65;;;;;;;;;;4968459;28;20038;-78
2024/01/03 06:18:15;;;;;;;12.27;2.22;;;;;;;;;;4953968;28;20035;-77
2024/01/03 06:20:41;;;;;;;7.30;2.20;;;;;;;;;;4955026;28;20038;-78
2024/01/03 06:23:07;;;;;;;11.80;1.80;;;;;;;;;;4974786;28;20424;-78
2024/01/03 06:25:33;;;;;;;7.50;2.15;;;;;;;;;;4984773;28;20038;-78
2024/01/03 06:27:59;;;;;;;10.68;2.92;;;;;;;;;;4972511;28;20069;-78
2024/01/03 06:30:25;;;;;;;9.88;2.13;;;;;;;;;;4970614;28;20119;-77
2024/01/03 06:32:51;;;;;;;9.13;2.20;;;;;;;;;;4972023;28;20042;-77
2024/01/03 06:35:17;;;;;;;11.02;2.72;;;;;;;;;;4974538;28;20125;-77
2024/01/03 06:37:43;;;;;;;8.07;1.85;;;;;;;;;;4971683;28;20057;-77
2024/01/03 06:40:10;;;;;;;4.53;1.17;;;;;;;;;;4972519;28;20045;-77
2024/01/03 06:42:36;;;;;;;10.75;1.92;;;;;;;;;;4969821;28;20064;-77
2024/01/03 06:45:02;;;;;;;8.77;1.65;;;;;;;;;;4974344;28;20066;-77
2024/01/03 06:47:28;;;;;;;10.82;1.60;;;;;;;;;;4971373;28;20046;-77
2024/01/03 06:49:54;;;;;;;5.07;1.42;;;;;;;;;;4969337;28;20048;-77
2024/01/03 06:52:20;;;;;;;10.32;3.35;;;;;;;;;;4987044;28;20038;-77
2024/01/03 06:54:46;;;;;;;7.03;1.67;;;;;;;;;;4971893;28;20374;-77
2024/01/03 06:57:12;;;;;;;9.25;1.90;;;;;;;;;;4972661;28;20057;-77
2024/01/03 06:59:38;;;;;;;14.90;2.65;;;;;;;;;;4972449;28;20052;-77
2024/01/03 07:02:05;;;;;;;16.05;2.20;;;;;;;;;;4963588;28;20042;-78
2024/01/03 07:04:31;;;;;;;14.15;1.98;;;;;;;;;;4974053;28;20061;-78
2024/01/03 07:06:57;;;;;;;15.98;2.50;;;;;;;;;;4971988;28;20046;-77
2024/01/03 07:09:23;;;;;;;19.58;3.45;;;;;;;;;;4955088;28;20130;-78
2024/01/03 07:11:50;;;;;;;18.67;3.45;;;;;;;;;;4990274;28;20508;-78
2024/01/03 07:14:16;;;;;;;12.23;2.33;;;;;;;;;;4985092;28;20137;-77
2024/01/03 07:16:42;;;;;;;23.85;3.25;;;;;;;;;;5001533;28;20046;-78
2024/01/03 07:19:08;;;;;;;23.90;3.33;;;;;;;;;;4986725;28;20041;-78
2024/01/03 07:21:34;;;;;;;21.00;3.60;;;;;;;;;;4988869;28;20125;-78
2024/01/03 07:24:02;;;;;;;26.85;3.60;;;;;;;;;;4991691;28;20518;-77
2024/01/03 07:26:28;;;;;;;20.58;3.25;;;;;;;;;;4988671;28;20077;-78
2024/01/03 07:28:54;;;;;;;27.65;5.25;;;;;;;;;;4970590;28;20045;-77
2024/01/03 07:31:20;;;;;;;30.73;5.50;;;;;;;;;;4972807;28;20049;-77
2024/01/03 07:33:46;;;;;;;25.20;3.65;;;;;;;;;;4988433;28;20095;-78
2024/01/03 07:36:12;;;;;;;31.92;4.97;;;;;;;;;;4974451;28;20041;-77
2024/01/03 07:38:38;;;;;;;24.38;4.10;;;;;;;;;;4963014;28;20044;-79
2024/01/03 07:41:04;;;;;;;26.63;3.40;;;;;;;;;;4972276;28;20077;-78
2024/01/03 07:43:30;;;;;;;25.20;4.18;;;;;;;;;;4973755;28;20040;-79
2024/01/03 07:45:58;;;;;;;31.38;5.20;;;;;;;;;;4972257;28;20038;-78
2024/01/03 07:48:27;;;;;;;27.67;4.10;;;;;;;;;;5005629;28;20034;-79
2024/01/03 07:50:53;;;;;;;21.10;2.97;;;;;;;;;;4988702;28;20473;-78
2024/01/03 07:53:19;;;;;;;28.10;3.63;;;;;;;;;;4972553;28;20588;-79
2024/01/03 07:55:46;;;;;;;20.75;6.10;;;;;;;;;;4951384;28;20125;-78
2024/01/03 07:58:12;;;;;;;26.25;3.33;;;;;;;;;;4972657;28;20049;-79
2024/01/03 08:00:38;;;;;;;26.88;3.55;;;;;;;;;;4972139;28;20078;-81
2024/01/03 08:03:04;;;;;;;22.38;3.17;;;;;;;;;;4969313;28;20476;-78
2024/01/03 08:05:31;;;;;;;27.98;4.97;;;;;;;;;;4971486;28;20463;-78
2024/01/03 08:07:57;;;;;;;38.42;5.75;;;;;;;;;;4955747;28;20117;-78
2024/01/03 08:10:23;;;;;;;29.45;4.32;;;;;;;;;;4987726;28;20094;-78
2024/01/03 08:12:49;;;;;;;32.30;4.80;;;;;;;;;;4986175;28;20042;-78
2024/01/03 08:15:15;;;;;;;26.60;5.03;;;;;;;;;;4973259;28;20033;-78
2024/01/03 08:17:41;;;;;;;25.45;4.53;;;;;;;;;;4969236;28;20397;-78
2024/01/03 08:20:09;;;;;;;25.48;5.00;;;;;;;;;;4972251;28;20112;-78
2024/01/03 08:22:35;;;;;;;33.05;4.75;;;;;;;;;;4985178;28;20042;-78
2024/01/03 08:25:01;;;;;;;22.52;3.63;;;;;;;;;;4969519;28;20045;-80
2024/01/03 08:27:37;;;;;;;25.42;3.80;;;;;;;;;;4986422;28;20445;-79
2024/01/03 08:30:03;;;;;;;19.98;3.70;;;;;;;;;;4982112;28;20076;-78
2024/01/03 08:32:29;;;;;;;14.32;2.72;;;;;;;;;;4984017;28;20305;-79
2024/01/03 08:34:55;;;;;;;23.83;4.07;;;;;;;;;;4981997;28;20424;-78
2024/01/03 08:37:22;;;;;;;25.30;3.30;;;;;;;;;;4955770;28;20062;-78
2024/01/03 08:39:48;;;;;;;30.35;4.13;;;;;;;;;;4982270;28;20041;-78
2024/01/03 08:42:14;;;;;;;25.70;4.60;;;;;;;;;;4988377;28;20049;-78
2024/01/03 08:44:40;;;;;;;28.80;4.43;;;;;;;;;;4955886;28;20439;-78
2024/01/03 08:47:07;;;;;;;15.80;2.72;;;;;;;;;;4968473;28;20413;-79
2024/01/03 08:49:33;;;;;;;14.85;2.45;;;;;;;;;;4966744;28;20046;-78
2024/01/03 08:52:00;;;;;;;15.85;3.08;;;;;;;;;;4990288;28;20370;-78
2024/01/03 08:54:27;;;;;;;21.27;3.38;;;;;;;;;;4959230;28;20188;-78
2024/01/03 08:56:53;;;;;;;11.50;2.67;;;;;;;;;;4972901;28;20050;-78
2024/01/03 08:59:19;;;;;;;17.75;3.78;;;;;;;;;;4974723;28;20037;-78
2024/01/03 09:01:45;;;;;;;15.10;2.80;;;;;;;;;;4975203;28;20095;-78
2024/01/03 09:04:11;;;;;;;13.20;2.70;;;;;;;;;;4973050;28;20049;-78
2024/01/03 09:06:38;;;;;;;17.38;3.08;;;;;;;;;;4977953;28;20037;-78
2024/01/03 09:09:04;;;;;;;16.60;2.70;;;;;;;;;;4993071;28;20056;-78
2024/01/03 09:11:30;;;;;;;21.88;3.20;;;;;;;;;;4990872;28;20496;-78
2024/01/03 09:13:57;;;;;;;22.45;3.10;;;;;;;;;;4974663;28;20056;-78
2024/01/03 09:16:23;;;;;;;22.40;3.47;;;;;;;;;;4990125;28;20100;-78
2024/01/03 09:18:50;;;;;;;23.35;3.10;;;;;;;;;;4972536;28;20372;-78
2024/01/03 09:21:16;;;;;;;19.42;3.00;;;;;;;;;;4990491;28;20050;-77
2024/01/03 09:23:42;;;;;;;19.98;3.05;;;;;;;;;;4959654;28;20049;-77
2024/01/03 09:26:12;;;;;;;16.23;2.15;;;;;;;;;;4992145;28;20476;-77
2024/01/03 09:28:38;;;;;;;17.67;2.60;;;;;;;;;;4974181;28;20128;-77
2024/01/03 09:31:08;;;;;;;14.82;2.60;;;;;;;;;;4971266;28;20053;-77
2024/01/03 09:33:34;;;;;;;11.73;2.08;;;;;;;;;;4990493;28;20399;-77
2024/01/03 09:36:00;;;;;;;15.70;2.45;;;;;;;;;;4976222;28;20042;-78
2024/01/03 09:38:28;;;;;;;16.77;2.72;;;;;;;;;;4988334;28;21674;-78
2024/01/03 09:40:54;;;;;;;15.35;2.88;;;;;;;;;;4968236;28;20128;-78
2024/01/03 09:43:21;;;;;;;8.50;1.95;;;;;;;;;;4973199;28;20034;-78
2024/01/03 09:45:48;;;;;;;17.88;3.25;;;;;;;;;;4987889;28;20511;-78
2024/01/03 09:48:14;;;;;;;18.50;2.35;;;;;;;;;;4969396;28;20513;-77
2024/01/03 09:50:40;;;;;;;17.60;2.50;;;;;;;;;;4986148;28;20408;-77
2024/01/03 09:53:07;;;;;;;18.77;3.15;;;;;;;;;;4974271;28;20034;-78
2024/01/03 09:55:34;;;;;;;16.60;3.53;;;;;;;;;;4970277;28;20046;-78
2024/01/03 09:58:01;;;;;;;14.00;2.55;;;;;;;;;;4967577;28;20050;-77
2024/01/03 10:00:30;;;;;;;23.27;2.65;;;;;;;;;;4974602;28;20138;-82
2024/01/03 10:03:03;;;;;;;23.52;4.82;;;;;;;;;;4989700;28;20050;-83
2024/01/03 10:05:29;;;;;;;17.33;3.17;;;;;;;;;;4969534;28;20481;-82
2024/01/03 10:07:58;;;;;;;13.07;2.50;;;;;;;;;;4976466;28;20041;-83
2024/01/03 10:10:29;;;;;;;12.98;2.05;;;;;;;;;;4947070;28;20035;-82
2024/01/03 10:12:55;;;;;;;13.32;2.72;;;;;;;;;;4977257;28;20127;-82
2024/01/03 10:15:22;;;;;;;17.15;3.13;;;;;;;;;;4975421;28;20052;-83
2024/01/03 10:17:48;;;;;;;20.35;3.03;;;;;;;;;;4973916;28;20038;-82
2024/01/03 10:20:27;;;;;;;15.68;2.70;;;;;;;;;;4954611;28;20042;-76
2024/01/03 10:23:13;;;;;;;9.75;2.03;;;;;;;;;;4988155;28;20120;-78
2024/01/03 10:25:40;;;;;;;15.05;3.00;;;;;;;;;;4972558;28;20621;-77
2024/01/03 10:28:07;;;;;;;11.93;4.35;;;;;;;;;;4953155;28;20394;-76
2024/01/03 10:30:33;;;;;;;23.00;4.18;;;;;;;;;;4969607;28;20149;-77
2024/01/03 10:33:00;;;;;;;12.85;2.13;;;;;;;;;;4990116;28;20100;-80
2024/01/03 10:35:37;;;;;;;8.00;2.38;;;;;;;;;;4984774;28;20125;-77
2024/01/03 10:38:03;;;;;;;10.13;2.70;;;;;;;;;;4985289;28;20057;-77
2024/01/03 10:40:30;;;;;;;10.98;2.42;;;;;;;;;;4982478;28;20046;-77
2024/01/03 10:42:57;;;;;;;17.48;2.40;;;;;;;;;;4981092;28;20042;-78
2024/01/03 10:45:23;;;;;;;12.00;2.58;;;;;;;;;;4955644;28;20046;-76
2024/01/03 10:47:50;;;;;;;9.00;1.85;;;;;;;;;;4971504;28;20050;-77
2024/01/03 10:50:16;;;;;;;14.27;2.00;;;;;;;;;;4981527;28;20511;-77
2024/01/03 10:52:43;;;;;;;9.15;1.90;;;;;;;;;;4968418;28;20037;-77
2024/01/03 10:55:10;;;;;;;15.45;2.60;;;;;;;;;;4983683;28;20053;-77
2024/01/03 10:57:37;;;;;;;12.18;2.10;;;;;;;;;;4982075;28;20504;-77
2024/01/03 11:00:25;;;;;;;8.93;1.80;;;;;;;;;;4958884;28;20054;-76
2024/01/03 11:03:00;;;;;;;15.30;2.60;;;;;;;;;;4965984;28;20043;-76
2024/01/03 11:05:32;;;;;;;9.05;2.00;;;;;;;;;;4972457;28;20042;-77
2024/01/03 11:08:10;;;;;;;8.55;2.63;;;;;;;;;;4986512;28;20042;-76
2024/01/03 11:10:54;;;;;;;8.48;2.00;;;;;;;;;;4983574;28;20129;-82
2024/01/03 11:13:34;;;;;;;13.07;2.38;;;;;;;;;;4999950;28;20113;-82
2024/01/03 11:16:05;;;;;;;12.23;1.95;;;;;;;;;;4985133;28;20124;-80
2024/01/03 11:18:43;;;;;;;8.98;1.88;;;;;;;;;;4970232;28;20034;-82
2024/01/03 11:21:23;;;;;;;12.65;2.47;;;;;;;;;;4970051;28;20049;-82
2024/01/03 11:23:49;;;;;;;17.58;2.25;;;;;;;;;;4986754;28;20095;-82
2024/01/03 11:26:15;;;;;;;11.32;1.77;;;;;;;;;;4971931;28;20124;-81
2024/01/03 11:28:48;;;;;;;9.95;2.10;;;;;;;;;;4951157;28;20046;-83
2024/01/03 11:31:15;;;;;;;15.10;2.03;;;;;;;;;;4962491;28;20397;-82
2024/01/03 11:33:41;;;;;;;17.27;2.67;;;;;;;;;;4965885;28;20041;-79
2024/01/03 11:36:07;;;;;;;17.75;3.78;;;;;;;;;;4981764;28;20085;-80
2024/01/03 11:38:42;;;;;;;8.45;2.03;;;;;;;;;;4981574;28;20080;-81
2024/01/03 11:41:09;;;;;;;7.80;1.73;;;;;;;;;;4971066;28;20489;-81
2024/01/03 11:43:36;;;;;;;9.40;2.33;;;;;;;;;;4986067;28;20045;-78
2024/01/03 11:46:09;;;;;;;6.55;1.60;;;;;;;;;;4970766;28;20054;-82
2024/01/03 11:48:35;;;;;;;8.60;1.57;;;;;;;;;;4975291;28;20045;-78
2024/01/03 11:51:01;;;;;;;10.77;2.38;;;;;;;;;;4972607;28;20061;-83
2024/01/03 11:53:27;;;;;;;11.60;2.10;;;;;;;;;;4980529;28;20033;-78
2024/01/03 11:55:54;;;;;;;12.20;3.33;;;;;;;;;;4972143;28;20034;-78
2024/01/03 11:58:20;;;;;;;9.75;1.80;;;;;;;;;;4969489;28;20108;-81
2024/01/03 12:00:46;;;;;;;8.13;2.30;;;;;;;;;;4968536;28;20049;-80
2024/01/03 12:03:19;;;;;;;7.90;2.40;;;;;;;;;;4970357;28;20047;-81
2024/01/03 12:05:45;;;;;;;8.40;1.80;;;;;;;;;;4984084;28;20137;-80
2024/01/03 12:08:13;;;;;;;14.75;3.35;;;;;;;;;;4971366;28;20041;-82
2024/01/03 12:10:40;;;;;;;13.65;2.33;;;;;;;;;;4985391;28;20038;-82
2024/01/03 12:13:07;;;;;;;10.30;1.60;;;;;;;;;;4953752;28;20038;-83
2024/01/03 12:15:33;;;;;;;15.63;2.35;;;;;;;;;;4970452;28;20068;-81
2024/01/03 12:18:07;;;;;;;15.38;1.88;;;;;;;;;;4968818;28;20086;-80
2024/01/03 12:20:33;;;;;;;7.10;1.50;;;;;;;;;;4983520;28;20076;-76
2024/01/03 12:23:09;;;;;;;6.20;1.60;;;;;;;;;;4964977;28;20046;-76
2024/01/03 12:25:35;;;;;;;9.70;1.20;;;;;;;;;;4970432;28;20104;-76
2024/01/03 12:28:01;;;;;;;9.77;1.77;;;;;;;;;;4988884;28;21049;-79
2024/01/03 12:30:27;;;;;;;13.18;1.70;;;;;;;;;;4969726;28;20061;-79
2024/01/03 12:33:06;;;;;;;13.63;1.88;;;;;;;;;;4974804;28;20126;-79
2024/01/03 12:35:33;;;;;;;16.77;2.45;;;;;;;;;;4976860;28;20516;-78
2024/01/03 12:37:59;;;;;;;13.27;2.42;;;;;;;;;;4971689;28;20041;-76
2024/01/03 12:40:25;;;;;;;10.00;2.22;;;;;;;;;;4971618;28;20528;-76
2024/01/03 12:42:51;;;;;;;10.70;2.22;;;;;;;;;;4991404;28;20896;-76
2024/01/03 12:45:17;;;;;;;14.48;2.47;;;;;;;;;;4972586;28;20452;-76
2024/01/03 12:47:43;;;;;;;17.65;3.42;;;;;;;;;;4974448;28;20125;-78
2024/01/03 12:50:09;;;;;;;12.88;2.40;;;;;;;;;;4973205;28;20064;-76
2024/01/03 12:52:36;;;;;;;14.50;2.78;;;;;;;;;;4973111;28;20053;-75
2024/01/03 12:55:06;;;;;;;22.17;3.30;;;;;;;;;;4993958;28;20046;-77
2024/01/03 12:57:32;;;;;;;21.90;4.40;;;;;;;;;;4955426;28;20065;-75
2024/01/03 12:59:59;;;;;;;22.27;3.15;;;;;;;;;;4979746;28;20129;-76
2024/01/03 13:02:25;;;;;;;22.98;3.05;;;;;;;;;;4972745;28;20409;-76
2024/01/03 13:04:52;;;;;;;25.33;3.10;;;;;;;;;;4975128;28;20048;-78
2024/01/03 13:07:19;;;;;;;17.38;4.25;;;;;;;;;;4990213;28;20060;-77
2024/01/03 13:09:45;;;;;;;22.15;3.65;;;;;;;;;;4973964;28;20448;-77
2024/01/03 13:12:11;;;;;;;19.73;3.50;;;;;;;;;;4974284;28;20125;-79
2024/01/03 13:14:37;;;;;;;16.48;3.42;;;;;;;;;;4956569;28;20030;-76
2024/01/03 13:17:03;;;;;;;18.58;4.85;;;;;;;;;;4973577;28;20042;-76
2024/01/03 13:19:29;;;;;;;27.42;5.07;;;;;;;;;;4991301;28;20089;-77
2024/01/03 13:21:55;;;;;;;14.52;3.35;;;;;;;;;;4982482;28;20045;-78
2024/01/03 13:24:23;;;;;;;17.00;3.63;;;;;;;;;;4975175;28;20034;-79
2024/01/03 13:26:49;;;;;;;19.33;3.55;;;;;;;;;;4976138;28;20041;-76
2024/01/03 13:29:15;;;;;;;26.55;4.10;;;;;;;;;;4976487;28;20053;-81
2024/01/03 13:31:41;;;;;;;26.45;5.07;;;;;;;;;;4987029;28;20401;-82
2024/01/03 13:34:07;;;;;;;22.02;3.05;;;;;;;;;;4975040;28;20061;-83
2024/01/03 13:36:33;;;;;;;15.93;2.97;;;;;;;;;;4976152;28;20038;-82
2024/01/03 13:38:59;;;;;;;13.20;2.05;;;;;;;;;;4978398;28;20073;-83
2024/01/03 13:41:26;;;;;;;11.98;2.10;;;;;;;;;;4974326;28;20060;-83
2024/01/03 13:43:53;;;;;;;9.13;2.13;;;;;;;;;;4992648;28;20080;-83
2024/01/03 13:46:21;;;;;;;9.43;1.95;;;;;;;;;;4973803;28;20121;-84
2024/01/03 13:48:48;;;;;;;6.30;1.30;;;;;;;;;;4988178;28;20048;-83
2024/01/03 13:51:14;;;;;;;8.55;1.67;;;;;;;;;;4977714;28;20046;-83
2024/01/03 13:53:42;;;;;;;12.05;1.70;;;;;;;;;;4975124;28;20401;-83
2024/01/03 13:56:08;;;;;;;14.48;2.85;;;;;;;;;;4965804;28;20050;-81
2024/01/03 13:58:35;;;;;;;11.98;2.15;;;;;;;;;;4988192;28;20054;-81
2024/01/03 14:01:03;;;;;;;15.45;2.63;;;;;;;;;;4971334;28;20042;-83
2024/01/03 14:03:32;;;;;;;11.90;2.97;;;;;;;;;;4969760;28;20042;-79
2024/01/03 14:05:59;;;;;;;8.23;1.70;;;;;;;;;;4969434;28;20049;-79
2024/01/03 14:08:25;;;;;;;4.82;1.70;;;;;;;;;;4988358;28;20667;-81
2024/01/03 14:10:52;;;;;;;10.15;2.25;;;;;;;;;;4973094;28;20046;-83
2024/01/03 14:13:18;;;;;;;7.63;2.13;;;;;;;;;;4972798;28;20038;-83
2024/01/03 14:15:44;;;;;;;6.90;1.40;;;;;;;;;;4987791;28;20049;-80
2024/01/03 14:18:10;;;;;;;7.20;1.90;;;;;;;;;;4985100;28;20071;-81
2024/01/03 14:20:36;;;;;;;9.75;1.52;;;;;;;;;;4970086;28;20045;-81
2024/01/03 14:23:03;;;;;;;5.93;1.10;;;;;;;;;;4970335;28;20041;-82
2024/01/03 14:25:29;;;;;;;6.10;1.20;;;;;;;;;;4957102;28;20489;-78
2024/01/03 14:27:56;;;;;;;6.82;1.88;;;;;;;;;;4975945;28;20141;-81
2024/01/03 14:30:23;;;;;;;8.60;1.90;;;;;;;;;;4958140;28;20038;-81
2024/01/03 14:32:50;;;;;;;13.32;2.47;;;;;;;;;;4958066;28;20045;-81